sensor_id;sensor_type;location;lat;lon;timestamp;P1;durP1;ratioP1;P2;durP2;ratioP2
9102;SDS011;4587;51.434;6.788;2022-12-11T00:01:11;52.17;;;26.40;;
9102;SDS011;4587;51.434;6.788;2022-12-11T00:03:38;54.77;;;25.67;;
9102;SDS011;4587;51.434;6.788;2022-12-11T00:06:07;54.90;;;26.90;;
9102;SDS011;4587;51.434;6.788;2022-12-11T00:08:35;49.00;;;26.23;;
9102;SDS011;4587;51.434;6.788;2022-12-11T00:11:00;52.67;;;25.63;;
9102;SDS011;4587;51.434;6.788;2022-12-11T00:13:26;46.20;;;23.57;;
9102;SDS011;4587;51.434;6.788;2022-12-11T00:15:52;48.80;;;25.00;;
9102;SDS011;4587;51.434;6.788;2022-12-11T00:18:17;51.00;;;25.43;;
9102;SDS011;4587;51.434;6.788;2022-12-11T00:20:43;53.30;;;24.90;;
9102;SDS011;4587;51.434;6.788;2022-12-11T00:23:08;52.53;;;25.27;;
9102;SDS011;4587;51.434;6.788;2022-12-11T00:25:44;48.20;;;24.30;;
9102;SDS011;4587;51.434;6.788;2022-12-11T00:28:14;50.90;;;24.23;;
9102;SDS011;4587;51.434;6.788;2022-12-11T00:30:43;47.73;;;24.53;;
9102;SDS011;4587;51.434;6.788;2022-12-11T00:33:09;44.67;;;23.17;;
9102;SDS011;4587;51.434;6.788;2022-12-11T00:35:42;54.37;;;26.60;;
9102;SDS011;4587;51.434;6.788;2022-12-11T00:38:16;53.60;;;26.13;;
9102;SDS011;4587;51.434;6.788;2022-12-11T00:40:43;53.80;;;27.57;;
9102;SDS011;4587;51.434;6.788;2022-12-11T00:43:10;55.30;;;29.43;;
9102;SDS011;4587;51.434;6.788;2022-12-11T00:45:40;54.00;;;27.67;;
9102;SDS011;4587;51.434;6.788;2022-12-11T00:48:07;52.30;;;27.57;;
9102;SDS011;4587;51.434;6.788;2022-12-11T00:50:33;58.23;;;32.50;;
9102;SDS011;4587;51.434;6.788;2022-12-11T00:52:59;45.50;;;24.43;;
9102;SDS011;4587;51.434;6.788;2022-12-11T00:55:25;46.43;;;24.93;;
9102;SDS011;4587;51.434;6.788;2022-12-11T00:57:54;41.00;;;23.70;;
9102;SDS011;4587;51.434;6.788;2022-12-11T01:00:20;42.60;;;23.03;;
9102;SDS011;4587;51.434;6.788;2022-12-11T01:02:46;42.83;;;23.60;;
9102;SDS011;4587;51.434;6.788;2022-12-11T01:05:12;37.43;;;20.07;;
9102;SDS011;4587;51.434;6.788;2022-12-11T01:07:38;37.87;;;22.40;;
9102;SDS011;4587;51.434;6.788;2022-12-11T01:10:04;46.87;;;26.00;;
9102;SDS011;4587;51.434;6.788;2022-12-11T01:13:05;48.77;;;26.80;;
9102;SDS011;4587;51.434;6.788;2022-12-11T01:15:32;42.97;;;23.40;;
9102;SDS011;4587;51.434;6.788;2022-12-11T01:18:13;47.10;;;25.83;;
9102;SDS011;4587;51.434;6.788;2022-12-11T01:20:40;45.33;;;24.53;;
9102;SDS011;4587;51.434;6.788;2022-12-11T01:23:06;42.13;;;22.87;;
9102;SDS011;4587;51.434;6.788;2022-12-11T01:25:32;46.27;;;23.57;;
9102;SDS011;4587;51.434;6.788;2022-12-11T01:27:59;39.27;;;21.97;;
9102;SDS011;4587;51.434;6.788;2022-12-11T01:30:25;38.33;;;22.57;;
9102;SDS011;4587;51.434;6.788;2022-12-11T01:32:51;35.03;;;20.37;;
9102;SDS011;4587;51.434;6.788;2022-12-11T01:35:17;43.23;;;22.97;;
9102;SDS011;4587;51.434;6.788;2022-12-11T01:37:43;44.07;;;25.80;;
9102;SDS011;4587;51.434;6.788;2022-12-11T01:40:10;59.77;;;32.33;;
9102;SDS011;4587;51.434;6.788;2022-12-11T01:42:38;67.37;;;38.33;;
9102;SDS011;4587;51.434;6.788;2022-12-11T01:50:35;59.47;;;32.47;;
9102;SDS011;4587;51.434;6.788;2022-12-11T01:53:05;50.07;;;26.87;;
9102;SDS011;4587;51.434;6.788;2022-12-11T01:55:33;51.27;;;29.37;;
9102;SDS011;4587;51.434;6.788;2022-12-11T01:57:59;45.63;;;27.57;;
9102;SDS011;4587;51.434;6.788;2022-12-11T02:00:26;78.60;;;46.63;;
9102;SDS011;4587;51.434;6.788;2022-12-11T02:02:51;83.17;;;51.00;;
9102;SDS011;4587;51.434;6.788;2022-12-11T02:05:17;55.27;;;32.23;;
9102;SDS011;4587;51.434;6.788;2022-12-11T02:07:45;48.33;;;26.83;;
9102;SDS011;4587;51.434;6.788;2022-12-11T02:10:14;42.50;;;24.50;;
9102;SDS011;4587;51.434;6.788;2022-12-11T02:12:43;45.33;;;23.47;;
9102;SDS011;4587;51.434;6.788;2022-12-11T02:15:31;39.87;;;22.13;;
9102;SDS011;4587;51.434;6.788;2022-12-11T02:18:16;42.53;;;24.33;;
9102;SDS011;4587;51.434;6.788;2022-12-11T02:21:10;43.60;;;24.73;;
9102;SDS011;4587;51.434;6.788;2022-12-11T02:26:24;39.20;;;22.90;;
9102;SDS011;4587;51.434;6.788;2022-12-11T02:29:17;40.60;;;21.83;;
9102;SDS011;4587;51.434;6.788;2022-12-11T02:31:49;38.30;;;22.07;;
9102;SDS011;4587;51.434;6.788;2022-12-11T02:34:31;42.53;;;22.13;;
9102;SDS011;4587;51.434;6.788;2022-12-11T02:37:05;45.67;;;23.40;;
9102;SDS011;4587;51.434;6.788;2022-12-11T02:39:35;38.90;;;21.47;;
9102;SDS011;4587;51.434;6.788;2022-12-11T02:42:04;87.10;;;49.67;;
9102;SDS011;4587;51.434;6.788;2022-12-11T02:44:32;67.43;;;37.33;;
9102;SDS011;4587;51.434;6.788;2022-12-11T02:46:59;43.40;;;24.33;;
9102;SDS011;4587;51.434;6.788;2022-12-11T02:49:27;46.73;;;24.47;;
9102;SDS011;4587;51.434;6.788;2022-12-11T02:51:54;52.37;;;28.10;;
9102;SDS011;4587;51.434;6.788;2022-12-11T02:54:28;65.93;;;35.80;;
9102;SDS011;4587;51.434;6.788;2022-12-11T02:59:51;52.67;;;27.27;;
9102;SDS011;4587;51.434;6.788;2022-12-11T03:02:17;53.47;;;28.13;;
9102;SDS011;4587;51.434;6.788;2022-12-11T03:04:43;52.07;;;27.77;;
9102;SDS011;4587;51.434;6.788;2022-12-11T03:07:10;56.87;;;28.20;;
9102;SDS011;4587;51.434;6.788;2022-12-11T03:09:44;52.67;;;27.47;;
9102;SDS011;4587;51.434;6.788;2022-12-11T03:12:11;52.27;;;26.87;;
9102;SDS011;4587;51.434;6.788;2022-12-11T03:14:43;69.23;;;36.53;;
9102;SDS011;4587;51.434;6.788;2022-12-11T03:17:14;56.10;;;29.23;;
9102;SDS011;4587;51.434;6.788;2022-12-11T03:22:21;52.67;;;26.43;;
9102;SDS011;4587;51.434;6.788;2022-12-11T03:24:52;62.90;;;36.03;;
9102;SDS011;4587;51.434;6.788;2022-12-11T03:27:26;58.23;;;29.50;;
9102;SDS011;4587;51.434;6.788;2022-12-11T03:29:56;58.77;;;32.70;;
9102;SDS011;4587;51.434;6.788;2022-12-11T03:32:38;61.07;;;33.07;;
9102;SDS011;4587;51.434;6.788;2022-12-11T03:37:51;51.00;;;26.97;;
9102;SDS011;4587;51.434;6.788;2022-12-11T03:40:20;61.47;;;31.77;;
9102;SDS011;4587;51.434;6.788;2022-12-11T03:42:48;51.33;;;26.50;;
9102;SDS011;4587;51.434;6.788;2022-12-11T03:45:16;53.50;;;27.70;;
9102;SDS011;4587;51.434;6.788;2022-12-11T03:47:44;49.77;;;26.63;;
9102;SDS011;4587;51.434;6.788;2022-12-11T03:50:11;95.30;;;66.97;;
9102;SDS011;4587;51.434;6.788;2022-12-11T03:52:40;55.37;;;31.43;;
9102;SDS011;4587;51.434;6.788;2022-12-11T03:55:08;45.83;;;26.50;;
9102;SDS011;4587;51.434;6.788;2022-12-11T03:57:36;45.03;;;26.50;;
9102;SDS011;4587;51.434;6.788;2022-12-11T04:00:06;47.23;;;25.17;;
9102;SDS011;4587;51.434;6.788;2022-12-11T04:02:34;50.07;;;26.10;;
9102;SDS011;4587;51.434;6.788;2022-12-11T04:05:00;45.07;;;24.97;;
9102;SDS011;4587;51.434;6.788;2022-12-11T04:07:26;49.47;;;24.43;;
9102;SDS011;4587;51.434;6.788;2022-12-11T04:09:52;44.87;;;24.67;;
9102;SDS011;4587;51.434;6.788;2022-12-11T04:12:18;47.93;;;24.73;;
9102;SDS011;4587;51.434;6.788;2022-12-11T04:14:44;44.30;;;24.07;;
9102;SDS011;4587;51.434;6.788;2022-12-11T04:17:32;42.27;;;23.33;;
9102;SDS011;4587;51.434;6.788;2022-12-11T04:20:19;40.47;;;23.77;;
9102;SDS011;4587;51.434;6.788;2022-12-11T04:23:04;44.27;;;23.53;;
9102;SDS011;4587;51.434;6.788;2022-12-11T04:25:49;40.70;;;23.10;;
9102;SDS011;4587;51.434;6.788;2022-12-11T04:28:15;39.27;;;23.40;;
9102;SDS011;4587;51.434;6.788;2022-12-11T04:30:46;40.20;;;22.57;;
9102;SDS011;4587;51.434;6.788;2022-12-11T04:33:13;39.00;;;22.87;;
9102;SDS011;4587;51.434;6.788;2022-12-11T04:35:38;38.77;;;21.67;;
9102;SDS011;4587;51.434;6.788;2022-12-11T04:38:04;38.07;;;22.70;;
9102;SDS011;4587;51.434;6.788;2022-12-11T04:40:30;37.93;;;22.40;;
9102;SDS011;4587;51.434;6.788;2022-12-11T04:42:55;38.07;;;22.33;;
9102;SDS011;4587;51.434;6.788;2022-12-11T04:45:21;37.47;;;22.33;;
9102;SDS011;4587;51.434;6.788;2022-12-11T04:47:46;38.47;;;22.20;;
9102;SDS011;4587;51.434;6.788;2022-12-11T04:50:12;37.87;;;23.07;;
9102;SDS011;4587;51.434;6.788;2022-12-11T04:52:39;38.83;;;23.37;;
9102;SDS011;4587;51.434;6.788;2022-12-11T04:55:05;44.13;;;25.53;;
9102;SDS011;4587;51.434;6.788;2022-12-11T04:57:32;46.40;;;25.83;;
9102;SDS011;4587;51.434;6.788;2022-12-11T04:59:57;43.13;;;24.03;;
9102;SDS011;4587;51.434;6.788;2022-12-11T05:02:24;41.70;;;24.50;;
9102;SDS011;4587;51.434;6.788;2022-12-11T05:04:50;47.97;;;26.00;;
9102;SDS011;4587;51.434;6.788;2022-12-11T05:07:16;45.20;;;25.93;;
9102;SDS011;4587;51.434;6.788;2022-12-11T05:09:42;42.13;;;24.37;;
9102;SDS011;4587;51.434;6.788;2022-12-11T05:12:07;45.47;;;26.00;;
9102;SDS011;4587;51.434;6.788;2022-12-11T05:14:33;44.90;;;25.53;;
9102;SDS011;4587;51.434;6.788;2022-12-11T05:16:58;48.33;;;25.50;;
9102;SDS011;4587;51.434;6.788;2022-12-11T05:19:24;47.47;;;26.20;;
9102;SDS011;4587;51.434;6.788;2022-12-11T05:21:50;47.47;;;27.00;;
9102;SDS011;4587;51.434;6.788;2022-12-11T05:24:16;44.50;;;25.77;;
9102;SDS011;4587;51.434;6.788;2022-12-11T05:26:41;50.00;;;27.13;;
9102;SDS011;4587;51.434;6.788;2022-12-11T05:29:07;44.73;;;25.87;;
9102;SDS011;4587;51.434;6.788;2022-12-11T05:31:32;45.60;;;26.33;;
9102;SDS011;4587;51.434;6.788;2022-12-11T05:33:58;44.20;;;26.50;;
9102;SDS011;4587;51.434;6.788;2022-12-11T05:36:25;43.70;;;25.17;;
9102;SDS011;4587;51.434;6.788;2022-12-11T05:38:56;47.83;;;26.53;;
9102;SDS011;4587;51.434;6.788;2022-12-11T05:41:23;43.10;;;26.13;;
9102;SDS011;4587;51.434;6.788;2022-12-11T05:43:50;41.83;;;25.50;;
9102;SDS011;4587;51.434;6.788;2022-12-11T05:46:23;43.30;;;25.43;;
9102;SDS011;4587;51.434;6.788;2022-12-11T05:48:51;41.77;;;25.00;;
9102;SDS011;4587;51.434;6.788;2022-12-11T05:51:21;40.13;;;24.60;;
9102;SDS011;4587;51.434;6.788;2022-12-11T05:53:48;41.03;;;24.50;;
9102;SDS011;4587;51.434;6.788;2022-12-11T05:56:24;40.57;;;25.23;;
9102;SDS011;4587;51.434;6.788;2022-12-11T05:58:52;43.23;;;24.73;;
9102;SDS011;4587;51.434;6.788;2022-12-11T06:03:47;40.00;;;24.90;;
9102;SDS011;4587;51.434;6.788;2022-12-11T06:06:13;41.20;;;24.70;;
9102;SDS011;4587;51.434;6.788;2022-12-11T06:08:39;41.10;;;25.07;;
9102;SDS011;4587;51.434;6.788;2022-12-11T06:11:04;41.10;;;24.83;;
9102;SDS011;4587;51.434;6.788;2022-12-11T06:13:30;38.73;;;23.30;;
9102;SDS011;4587;51.434;6.788;2022-12-11T06:16:03;38.70;;;24.03;;
9102;SDS011;4587;51.434;6.788;2022-12-11T06:18:30;42.90;;;25.73;;
9102;SDS011;4587;51.434;6.788;2022-12-11T06:20:55;39.60;;;24.00;;
9102;SDS011;4587;51.434;6.788;2022-12-11T06:23:21;41.23;;;25.13;;
9102;SDS011;4587;51.434;6.788;2022-12-11T06:25:47;40.07;;;24.63;;
9102;SDS011;4587;51.434;6.788;2022-12-11T06:28:13;41.73;;;25.40;;
9102;SDS011;4587;51.434;6.788;2022-12-11T06:30:38;38.73;;;24.60;;
9102;SDS011;4587;51.434;6.788;2022-12-11T06:33:04;46.07;;;25.37;;
9102;SDS011;4587;51.434;6.788;2022-12-11T06:35:29;40.10;;;24.80;;
9102;SDS011;4587;51.434;6.788;2022-12-11T06:37:55;41.57;;;25.67;;
9102;SDS011;4587;51.434;6.788;2022-12-11T06:40:21;41.23;;;24.53;;
9102;SDS011;4587;51.434;6.788;2022-12-11T06:42:46;41.43;;;26.20;;
9102;SDS011;4587;51.434;6.788;2022-12-11T06:45:12;43.30;;;25.00;;
9102;SDS011;4587;51.434;6.788;2022-12-11T06:47:38;46.43;;;26.93;;
9102;SDS011;4587;51.434;6.788;2022-12-11T06:50:03;41.83;;;25.80;;
9102;SDS011;4587;51.434;6.788;2022-12-11T06:52:29;42.67;;;25.27;;
9102;SDS011;4587;51.434;6.788;2022-12-11T06:54:55;41.97;;;25.13;;
9102;SDS011;4587;51.434;6.788;2022-12-11T06:57:21;42.27;;;25.57;;
9102;SDS011;4587;51.434;6.788;2022-12-11T06:59:47;42.43;;;24.80;;
9102;SDS011;4587;51.434;6.788;2022-12-11T07:02:16;42.07;;;25.20;;
9102;SDS011;4587;51.434;6.788;2022-12-11T07:04:43;40.30;;;23.93;;
9102;SDS011;4587;51.434;6.788;2022-12-11T07:07:09;39.60;;;25.03;;
9102;SDS011;4587;51.434;6.788;2022-12-11T07:09:36;43.63;;;24.63;;
9102;SDS011;4587;51.434;6.788;2022-12-11T07:12:03;40.10;;;24.50;;
9102;SDS011;4587;51.434;6.788;2022-12-11T07:14:30;42.53;;;25.57;;
9102;SDS011;4587;51.434;6.788;2022-12-11T07:16:56;42.63;;;24.27;;
9102;SDS011;4587;51.434;6.788;2022-12-11T07:19:21;42.20;;;24.43;;
9102;SDS011;4587;51.434;6.788;2022-12-11T07:21:47;42.37;;;25.60;;
9102;SDS011;4587;51.434;6.788;2022-12-11T07:24:13;36.97;;;22.47;;
9102;SDS011;4587;51.434;6.788;2022-12-11T07:26:38;38.90;;;23.13;;
9102;SDS011;4587;51.434;6.788;2022-12-11T07:29:04;38.43;;;24.63;;
9102;SDS011;4587;51.434;6.788;2022-12-11T07:31:30;42.77;;;23.73;;
9102;SDS011;4587;51.434;6.788;2022-12-11T07:33:57;40.80;;;23.47;;
9102;SDS011;4587;51.434;6.788;2022-12-11T07:36:24;45.80;;;25.83;;
9102;SDS011;4587;51.434;6.788;2022-12-11T07:38:52;40.03;;;24.60;;
9102;SDS011;4587;51.434;6.788;2022-12-11T07:41:18;38.97;;;23.80;;
9102;SDS011;4587;51.434;6.788;2022-12-11T07:43:44;39.70;;;24.00;;
9102;SDS011;4587;51.434;6.788;2022-12-11T07:46:13;38.00;;;23.50;;
9102;SDS011;4587;51.434;6.788;2022-12-11T07:48:42;40.13;;;24.43;;
9102;SDS011;4587;51.434;6.788;2022-12-11T07:51:09;39.70;;;23.53;;
9102;SDS011;4587;51.434;6.788;2022-12-11T07:53:51;38.90;;;23.60;;
9102;SDS011;4587;51.434;6.788;2022-12-11T07:56:18;38.00;;;23.87;;
9102;SDS011;4587;51.434;6.788;2022-12-11T07:58:44;39.33;;;23.23;;
9102;SDS011;4587;51.434;6.788;2022-12-11T08:01:10;38.17;;;24.13;;
9102;SDS011;4587;51.434;6.788;2022-12-11T08:03:40;40.90;;;24.07;;
9102;SDS011;4587;51.434;6.788;2022-12-11T08:06:06;40.73;;;23.67;;
9102;SDS011;4587;51.434;6.788;2022-12-11T08:08:32;35.83;;;23.20;;
9102;SDS011;4587;51.434;6.788;2022-12-11T08:11:01;36.63;;;23.87;;
9102;SDS011;4587;51.434;6.788;2022-12-11T08:13:28;36.57;;;22.90;;
9102;SDS011;4587;51.434;6.788;2022-12-11T08:15:53;38.10;;;23.23;;
9102;SDS011;4587;51.434;6.788;2022-12-11T08:18:19;36.97;;;22.10;;
9102;SDS011;4587;51.434;6.788;2022-12-11T08:20:44;38.83;;;24.23;;
9102;SDS011;4587;51.434;6.788;2022-12-11T08:23:10;36.53;;;21.97;;
9102;SDS011;4587;51.434;6.788;2022-12-11T08:25:35;38.80;;;23.43;;
9102;SDS011;4587;51.434;6.788;2022-12-11T08:28:01;35.43;;;22.63;;
9102;SDS011;4587;51.434;6.788;2022-12-11T08:30:26;40.43;;;22.80;;
9102;SDS011;4587;51.434;6.788;2022-12-11T08:32:52;37.30;;;23.27;;
9102;SDS011;4587;51.434;6.788;2022-12-11T08:35:18;34.93;;;22.10;;
9102;SDS011;4587;51.434;6.788;2022-12-11T08:37:43;38.07;;;23.50;;
9102;SDS011;4587;51.434;6.788;2022-12-11T08:40:09;32.43;;;22.00;;
9102;SDS011;4587;51.434;6.788;2022-12-11T08:42:36;33.00;;;20.97;;
9102;SDS011;4587;51.434;6.788;2022-12-11T08:45:02;34.07;;;21.50;;
9102;SDS011;4587;51.434;6.788;2022-12-11T08:47:28;31.80;;;20.67;;
9102;SDS011;4587;51.434;6.788;2022-12-11T08:49:54;33.87;;;21.00;;
9102;SDS011;4587;51.434;6.788;2022-12-11T08:52:20;30.60;;;20.00;;
9102;SDS011;4587;51.434;6.788;2022-12-11T08:54:46;32.30;;;20.97;;
9102;SDS011;4587;51.434;6.788;2022-12-11T08:57:12;30.63;;;19.47;;
9102;SDS011;4587;51.434;6.788;2022-12-11T08:59:37;25.10;;;17.47;;
9102;SDS011;4587;51.434;6.788;2022-12-11T09:02:03;28.57;;;18.10;;
9102;SDS011;4587;51.434;6.788;2022-12-11T09:04:29;26.23;;;17.67;;
9102;SDS011;4587;51.434;6.788;2022-12-11T09:06:54;28.53;;;18.47;;
9102;SDS011;4587;51.434;6.788;2022-12-11T09:09:20;25.87;;;17.47;;
9102;SDS011;4587;51.434;6.788;2022-12-11T09:11:46;30.67;;;19.17;;
9102;SDS011;4587;51.434;6.788;2022-12-11T09:14:11;29.37;;;18.97;;
9102;SDS011;4587;51.434;6.788;2022-12-11T09:16:38;27.80;;;18.47;;
9102;SDS011;4587;51.434;6.788;2022-12-11T09:19:05;29.87;;;19.80;;
9102;SDS011;4587;51.434;6.788;2022-12-11T09:21:32;27.53;;;18.77;;
9102;SDS011;4587;51.434;6.788;2022-12-11T09:23:58;28.60;;;18.43;;
9102;SDS011;4587;51.434;6.788;2022-12-11T09:26:25;30.90;;;22.23;;
9102;SDS011;4587;51.434;6.788;2022-12-11T09:28:52;40.23;;;31.73;;
9102;SDS011;4587;51.434;6.788;2022-12-11T09:31:20;31.50;;;22.40;;
9102;SDS011;4587;51.434;6.788;2022-12-11T09:33:50;34.30;;;23.30;;
9102;SDS011;4587;51.434;6.788;2022-12-11T09:36:18;28.87;;;19.33;;
9102;SDS011;4587;51.434;6.788;2022-12-11T09:38:44;27.90;;;17.80;;
9102;SDS011;4587;51.434;6.788;2022-12-11T09:46:31;27.13;;;17.13;;
9102;SDS011;4587;51.434;6.788;2022-12-11T09:48:58;30.70;;;21.03;;
9102;SDS011;4587;51.434;6.788;2022-12-11T09:51:40;32.23;;;20.70;;
9102;SDS011;4587;51.434;6.788;2022-12-11T09:54:11;28.93;;;18.60;;
9102;SDS011;4587;51.434;6.788;2022-12-11T09:56:40;32.27;;;19.27;;
9102;SDS011;4587;51.434;6.788;2022-12-11T10:12:57;28.67;;;17.60;;
9102;SDS011;4587;51.434;6.788;2022-12-11T10:15:32;23.00;;;16.97;;
9102;SDS011;4587;51.434;6.788;2022-12-11T10:17:59;25.67;;;18.87;;
9102;SDS011;4587;51.434;6.788;2022-12-11T10:20:28;30.43;;;19.83;;
9102;SDS011;4587;51.434;6.788;2022-12-11T10:22:59;27.77;;;19.27;;
9102;SDS011;4587;51.434;6.788;2022-12-11T10:25:33;26.67;;;19.47;;
9102;SDS011;4587;51.434;6.788;2022-12-11T10:28:16;27.10;;;18.03;;
9102;SDS011;4587;51.434;6.788;2022-12-11T10:30:56;26.60;;;19.43;;
9102;SDS011;4587;51.434;6.788;2022-12-11T10:36:25;26.03;;;17.43;;
9102;SDS011;4587;51.434;6.788;2022-12-11T10:38:53;25.40;;;17.33;;
9102;SDS011;4587;51.434;6.788;2022-12-11T10:41:20;26.67;;;17.83;;
9102;SDS011;4587;51.434;6.788;2022-12-11T10:43:49;27.87;;;17.97;;
9102;SDS011;4587;51.434;6.788;2022-12-11T10:46:18;25.77;;;17.33;;
9102;SDS011;4587;51.434;6.788;2022-12-11T10:48:56;30.07;;;18.57;;
9102;SDS011;4587;51.434;6.788;2022-12-11T10:53:56;32.37;;;23.00;;
9102;SDS011;4587;51.434;6.788;2022-12-11T10:56:31;28.87;;;19.50;;
9102;SDS011;4587;51.434;6.788;2022-12-11T10:58:57;28.40;;;19.80;;
9102;SDS011;4587;51.434;6.788;2022-12-11T11:01:28;44.83;;;35.33;;
9102;SDS011;4587;51.434;6.788;2022-12-11T11:03:57;27.03;;;18.37;;
9102;SDS011;4587;51.434;6.788;2022-12-11T11:06:39;31.47;;;20.77;;
9102;SDS011;4587;51.434;6.788;2022-12-11T11:09:21;28.83;;;19.07;;
9102;SDS011;4587;51.434;6.788;2022-12-11T11:11:52;37.20;;;26.97;;
9102;SDS011;4587;51.434;6.788;2022-12-11T11:14:19;32.23;;;23.60;;
9102;SDS011;4587;51.434;6.788;2022-12-11T11:16:47;30.17;;;22.57;;
9102;SDS011;4587;51.434;6.788;2022-12-11T11:19:18;40.03;;;30.10;;
9102;SDS011;4587;51.434;6.788;2022-12-11T11:21:48;32.93;;;21.63;;
9102;SDS011;4587;51.434;6.788;2022-12-11T11:24:26;30.10;;;20.73;;
9102;SDS011;4587;51.434;6.788;2022-12-11T11:26:58;34.00;;;23.80;;
9102;SDS011;4587;51.434;6.788;2022-12-11T11:29:26;34.43;;;24.17;;
9102;SDS011;4587;51.434;6.788;2022-12-11T11:31:54;36.67;;;24.10;;
9102;SDS011;4587;51.434;6.788;2022-12-11T11:34:20;42.07;;;30.23;;
9102;SDS011;4587;51.434;6.788;2022-12-11T11:36:56;34.37;;;25.97;;
9102;SDS011;4587;51.434;6.788;2022-12-11T11:39:28;31.03;;;21.47;;
9102;SDS011;4587;51.434;6.788;2022-12-11T11:42:19;27.47;;;19.07;;
9102;SDS011;4587;51.434;6.788;2022-12-11T11:44:59;29.77;;;20.17;;
9102;SDS011;4587;51.434;6.788;2022-12-11T11:47:34;29.43;;;19.20;;
9102;SDS011;4587;51.434;6.788;2022-12-11T11:50:12;27.73;;;20.57;;
9102;SDS011;4587;51.434;6.788;2022-12-11T11:52:54;28.77;;;20.63;;
9102;SDS011;4587;51.434;6.788;2022-12-11T12:00:41;26.17;;;19.63;;
9102;SDS011;4587;51.434;6.788;2022-12-11T12:03:17;27.40;;;19.80;;
9102;SDS011;4587;51.434;6.788;2022-12-11T12:11:07;35.20;;;23.37;;
9102;SDS011;4587;51.434;6.788;2022-12-11T12:13:52;30.90;;;20.93;;
9102;SDS011;4587;51.434;6.788;2022-12-11T12:19:41;36.43;;;24.40;;
9102;SDS011;4587;51.434;6.788;2022-12-11T12:33:25;21.80;;;16.57;;
9102;SDS011;4587;51.434;6.788;2022-12-11T12:36:19;22.60;;;16.50;;
9102;SDS011;4587;51.434;6.788;2022-12-11T12:39:02;23.47;;;15.87;;
9102;SDS011;4587;51.434;6.788;2022-12-11T12:44:17;63.47;;;35.03;;
9102;SDS011;4587;51.434;6.788;2022-12-11T12:49:14;23.43;;;16.97;;
9102;SDS011;4587;51.434;6.788;2022-12-11T12:51:43;21.90;;;15.53;;
9102;SDS011;4587;51.434;6.788;2022-12-11T12:54:11;22.90;;;15.33;;
9102;SDS011;4587;51.434;6.788;2022-12-11T12:56:40;21.93;;;15.17;;
9102;SDS011;4587;51.434;6.788;2022-12-11T12:59:22;21.50;;;15.47;;
9102;SDS011;4587;51.434;6.788;2022-12-11T13:01:50;22.07;;;15.13;;
9102;SDS011;4587;51.434;6.788;2022-12-11T13:04:28;23.13;;;15.97;;
9102;SDS011;4587;51.434;6.788;2022-12-11T13:06:58;21.00;;;15.47;;
9102;SDS011;4587;51.434;6.788;2022-12-11T13:09:36;21.43;;;15.60;;
9102;SDS011;4587;51.434;6.788;2022-12-11T13:12:02;21.13;;;15.50;;
9102;SDS011;4587;51.434;6.788;2022-12-11T13:14:37;22.13;;;15.33;;
9102;SDS011;4587;51.434;6.788;2022-12-11T13:17:04;20.47;;;15.83;;
9102;SDS011;4587;51.434;6.788;2022-12-11T13:19:33;24.90;;;15.90;;
9102;SDS011;4587;51.434;6.788;2022-12-11T13:24:44;22.23;;;15.73;;
9102;SDS011;4587;51.434;6.788;2022-12-11T13:27:26;20.53;;;14.87;;
9102;SDS011;4587;51.434;6.788;2022-12-11T13:35:30;21.40;;;15.77;;
9102;SDS011;4587;51.434;6.788;2022-12-11T13:38:05;22.87;;;16.40;;
9102;SDS011;4587;51.434;6.788;2022-12-11T13:40:38;22.33;;;15.93;;
9102;SDS011;4587;51.434;6.788;2022-12-11T13:43:13;21.50;;;16.03;;
9102;SDS011;4587;51.434;6.788;2022-12-11T13:45:49;23.23;;;16.87;;
9102;SDS011;4587;51.434;6.788;2022-12-11T13:48:23;21.43;;;16.27;;
9102;SDS011;4587;51.434;6.788;2022-12-11T13:50:53;24.67;;;17.83;;
9102;SDS011;4587;51.434;6.788;2022-12-11T13:53:20;23.37;;;17.60;;
9102;SDS011;4587;51.434;6.788;2022-12-11T13:55:45;22.07;;;17.23;;
9102;SDS011;4587;51.434;6.788;2022-12-11T13:58:20;26.17;;;18.30;;
9102;SDS011;4587;51.434;6.788;2022-12-11T14:00:53;22.77;;;17.17;;
9102;SDS011;4587;51.434;6.788;2022-12-11T14:03:26;26.50;;;19.53;;
9102;SDS011;4587;51.434;6.788;2022-12-11T14:05:52;23.70;;;19.17;;
9102;SDS011;4587;51.434;6.788;2022-12-11T14:08:22;25.30;;;19.13;;
9102;SDS011;4587;51.434;6.788;2022-12-11T14:10:51;28.00;;;20.10;;
9102;SDS011;4587;51.434;6.788;2022-12-11T14:13:20;26.70;;;19.80;;
9102;SDS011;4587;51.434;6.788;2022-12-11T14:15:51;25.97;;;18.60;;
9102;SDS011;4587;51.434;6.788;2022-12-11T14:18:21;27.73;;;19.67;;
9102;SDS011;4587;51.434;6.788;2022-12-11T14:20:56;26.17;;;20.03;;
9102;SDS011;4587;51.434;6.788;2022-12-11T14:23:25;28.50;;;19.40;;
9102;SDS011;4587;51.434;6.788;2022-12-11T14:25:59;29.03;;;19.90;;
9102;SDS011;4587;51.434;6.788;2022-12-11T14:31:49;29.13;;;20.97;;
9102;SDS011;4587;51.434;6.788;2022-12-11T14:37:13;29.17;;;21.10;;
9102;SDS011;4587;51.434;6.788;2022-12-11T14:39:43;26.80;;;19.90;;
9102;SDS011;4587;51.434;6.788;2022-12-11T14:42:28;26.63;;;19.90;;
9102;SDS011;4587;51.434;6.788;2022-12-11T14:44:58;27.73;;;20.20;;
9102;SDS011;4587;51.434;6.788;2022-12-11T14:47:33;28.10;;;20.53;;
9102;SDS011;4587;51.434;6.788;2022-12-11T14:50:05;27.53;;;20.37;;
9102;SDS011;4587;51.434;6.788;2022-12-11T14:52:41;25.53;;;19.00;;
9102;SDS011;4587;51.434;6.788;2022-12-11T14:55:20;29.37;;;19.43;;
9102;SDS011;4587;51.434;6.788;2022-12-11T14:57:52;26.13;;;18.87;;
9102;SDS011;4587;51.434;6.788;2022-12-11T15:00:32;25.63;;;18.13;;
9102;SDS011;4587;51.434;6.788;2022-12-11T15:03:34;25.90;;;18.20;;
9102;SDS011;4587;51.434;6.788;2022-12-11T15:05:56;23.53;;;16.80;;
9102;SDS011;4587;51.434;6.788;2022-12-11T15:08:31;21.37;;;15.93;;
9102;SDS011;4587;51.434;6.788;2022-12-11T15:11:03;23.90;;;16.87;;
9102;SDS011;4587;51.434;6.788;2022-12-11T15:13:35;22.13;;;15.90;;
9102;SDS011;4587;51.434;6.788;2022-12-11T15:16:03;22.50;;;15.63;;
9102;SDS011;4587;51.434;6.788;2022-12-11T15:18:38;22.43;;;15.17;;
9102;SDS011;4587;51.434;6.788;2022-12-11T15:21:06;22.70;;;16.20;;
9102;SDS011;4587;51.434;6.788;2022-12-11T15:27:05;21.87;;;16.60;;
9102;SDS011;4587;51.434;6.788;2022-12-11T15:29:32;21.43;;;15.93;;
9102;SDS011;4587;51.434;6.788;2022-12-11T15:32:11;22.37;;;16.17;;
9102;SDS011;4587;51.434;6.788;2022-12-11T15:34:48;22.50;;;16.03;;
9102;SDS011;4587;51.434;6.788;2022-12-11T15:39:51;21.63;;;15.53;;
9102;SDS011;4587;51.434;6.788;2022-12-11T15:42:25;21.87;;;16.07;;
9102;SDS011;4587;51.434;6.788;2022-12-11T15:45:16;23.97;;;16.50;;
9102;SDS011;4587;51.434;6.788;2022-12-11T15:47:44;24.37;;;16.97;;
9102;SDS011;4587;51.434;6.788;2022-12-11T15:50:26;28.37;;;20.33;;
9102;SDS011;4587;51.434;6.788;2022-12-11T15:52:54;28.17;;;20.93;;
9102;SDS011;4587;51.434;6.788;2022-12-11T15:55:21;30.57;;;22.60;;
9102;SDS011;4587;51.434;6.788;2022-12-11T15:57:51;74.03;;;46.67;;
9102;SDS011;4587;51.434;6.788;2022-12-11T16:00:22;35.87;;;23.67;;
9102;SDS011;4587;51.434;6.788;2022-12-11T16:02:48;27.07;;;18.33;;
9102;SDS011;4587;51.434;6.788;2022-12-11T16:05:14;22.63;;;17.43;;
9102;SDS011;4587;51.434;6.788;2022-12-11T16:07:40;20.83;;;16.10;;
9102;SDS011;4587;51.434;6.788;2022-12-11T16:10:06;22.67;;;17.37;;
9102;SDS011;4587;51.434;6.788;2022-12-11T16:12:37;23.90;;;17.43;;
9102;SDS011;4587;51.434;6.788;2022-12-11T16:15:03;24.13;;;16.87;;
9102;SDS011;4587;51.434;6.788;2022-12-11T16:17:29;22.20;;;16.03;;
9102;SDS011;4587;51.434;6.788;2022-12-11T16:19:55;25.90;;;16.43;;
9102;SDS011;4587;51.434;6.788;2022-12-11T16:22:21;24.37;;;16.83;;
9102;SDS011;4587;51.434;6.788;2022-12-11T16:24:46;22.27;;;16.53;;
9102;SDS011;4587;51.434;6.788;2022-12-11T16:27:12;21.97;;;16.03;;
9102;SDS011;4587;51.434;6.788;2022-12-11T16:29:38;24.10;;;15.23;;
9102;SDS011;4587;51.434;6.788;2022-12-11T16:32:05;21.00;;;15.37;;
9102;SDS011;4587;51.434;6.788;2022-12-11T16:34:32;20.97;;;15.07;;
9102;SDS011;4587;51.434;6.788;2022-12-11T16:36:59;24.03;;;16.83;;